Skip Navigation Links Skip Navigation Links

Current Weather

Kalamazoo/Battle Creek International, Kalamazoo, Mich.

For information only: do not use for flight planning or navigation.
Latest weather
Observation time Tuesday, October 19, 2021 4:53 AM EDT
Local time Tuesday, October 19, 2021 5:27 AM EDT
Flight conditions Visual Meteorological Conditions
Winds
Wind direction South (180°)
Wind speed 3 mph
Visibility 8 mi.
Sky condition
Ceiling unlimited
Sky clear
Temperature 45°F
Dewpoint 42°F
Altimeter 30.11 in.Hg
Pressure change last 3 hours0.00 in.Hg
Pressure falling more slowly
Derived measurements
Relative humidity 90%
Wind chill 44°F
Density altitude -149 ft.
Sea-level pressure 30.11 in.Hg
Remarks
Fully automated report.
Automated weather observing station with precipitation discriminator.
METAR KAZO 190853Z AUTO 18003KT 8SM CLR 07/06 A3011 RMK AO2 SLP196 T00720056 56001

Settings

Location code

InnerDrive.Weather 4.0.6770.0 Release CLR 4.0.30319.42000
Copyright ©2018 Inner Drive Technology. All rights reserved. Portions Copyright ©1986-2018 David Braverman.

Find weather

Site navigation


Skip Navigation Links

Place info

Page info

PayPal - The safer, easier way to pay online!

Return home.

Copyright ©2021 Inner Drive Technology. Purveyors of fine, hand-crafted computer software. Page printed 2021-10-19T09:27:51 UTC.